createdAt,value
2019-05-12T00:01:18.688Z,56.10
2019-05-12T00:03:48.445Z,56.40
2019-05-12T00:06:17.790Z,56.60
2019-05-12T00:08:48.705Z,57.40
2019-05-12T00:11:18.043Z,57.00
2019-05-12T00:13:47.833Z,57.30
2019-05-12T00:16:17.681Z,57.40
2019-05-12T00:18:48.316Z,57.60
2019-05-12T00:21:17.714Z,57.90
2019-05-12T00:24:04.649Z,58.10
2019-05-12T00:26:33.408Z,58.30
2019-05-12T00:29:02.179Z,58.20
2019-05-12T00:31:31.021Z,58.40
2019-05-12T00:33:59.800Z,58.50
2019-05-12T00:36:29.214Z,58.50
2019-05-12T00:38:58.198Z,58.40
2019-05-12T00:41:28.368Z,58.40
2019-05-12T00:43:58.241Z,58.60
2019-05-12T00:46:27.852Z,58.50
2019-05-12T00:48:58.493Z,58.60
2019-05-12T00:51:28.818Z,58.70
2019-05-12T00:53:58.101Z,58.70
2019-05-12T00:56:28.400Z,58.70
2019-05-12T00:58:58.001Z,58.80
2019-05-12T01:01:28.529Z,58.90
2019-05-12T01:03:58.027Z,59.10
2019-05-12T01:06:28.292Z,59.00
2019-05-12T01:08:57.923Z,59.20
2019-05-12T01:11:28.550Z,59.30
2019-05-12T01:13:58.306Z,59.40
2019-05-12T01:16:28.823Z,59.60
2019-05-12T01:18:58.618Z,59.60
2019-05-12T01:21:28.713Z,60.10
2019-05-12T01:24:03.531Z,60.10
2019-05-12T01:26:31.161Z,57.40
2019-05-12T01:28:59.928Z,60.30
2019-05-12T01:31:31.855Z,60.40
2019-05-12T01:34:00.594Z,60.40
2019-05-12T01:36:29.349Z,60.70
2019-05-12T01:39:01.579Z,60.80
2019-05-12T01:41:28.805Z,60.90
2019-05-12T01:43:58.468Z,60.90
2019-05-12T01:46:28.847Z,60.60
2019-05-12T01:48:59.144Z,60.80
2019-05-12T01:51:28.495Z,60.80
2019-05-12T01:54:10.993Z,60.90
2019-05-12T01:56:28.773Z,60.90
2019-05-12T01:58:57.920Z,61.10
2019-05-12T02:01:28.089Z,61.10
2019-05-12T02:03:58.588Z,61.20
2019-05-12T02:06:27.952Z,61.40
2019-05-12T02:08:59.593Z,61.60
2019-05-12T02:11:34.463Z,61.50
2019-05-12T02:14:04.683Z,61.70
2019-05-12T02:16:33.641Z,61.60
2019-05-12T02:19:02.458Z,61.70
2019-05-12T02:21:31.276Z,61.90
2019-05-12T02:24:00.042Z,61.80
2019-05-12T02:26:29.130Z,61.80
2019-05-12T02:28:58.600Z,61.90
2019-05-12T02:31:29.372Z,61.80
2019-05-12T02:33:58.297Z,61.60
2019-05-12T02:36:27.201Z,61.60
2019-05-12T02:38:56.267Z,61.60
2019-05-12T02:41:25.952Z,61.50
2019-05-12T02:43:55.512Z,61.60
2019-05-12T02:46:25.492Z,61.50
2019-05-12T02:48:54.845Z,61.70
2019-05-12T02:51:24.791Z,61.70
2019-05-12T02:53:55.359Z,61.80
2019-05-12T02:56:26.037Z,61.90
2019-05-12T02:58:55.244Z,61.90
2019-05-12T03:01:25.681Z,61.80
2019-05-12T03:03:58.170Z,61.90
2019-05-12T03:06:29.327Z,62.10
2019-05-12T03:09:04.519Z,61.90
2019-05-12T03:11:35.452Z,61.90
2019-05-12T03:14:04.102Z,61.90
2019-05-12T03:16:34.906Z,61.90
2019-05-12T03:19:04.909Z,61.90
2019-05-12T03:21:35.231Z,62.00
2019-05-12T03:24:06.273Z,62.10
2019-05-12T03:26:35.604Z,62.10
2019-05-12T03:29:05.708Z,62.00
2019-05-12T03:31:39.705Z,62.10
2019-05-12T03:34:09.330Z,62.10
2019-05-12T03:36:42.147Z,62.10
2019-05-12T03:39:08.198Z,61.90
2019-05-12T03:41:37.079Z,62.10
2019-05-12T03:44:05.916Z,62.00
2019-05-12T03:46:35.372Z,61.90
2019-05-12T03:49:05.522Z,62.20
2019-05-12T03:51:35.095Z,62.30
2019-05-12T03:54:05.026Z,62.20
2019-05-12T03:56:34.776Z,62.10
2019-05-12T03:59:05.125Z,62.20
2019-05-12T04:01:36.217Z,62.30
2019-05-12T04:04:05.492Z,62.30
2019-05-12T04:06:35.025Z,62.40
2019-05-12T04:09:08.674Z,62.30
2019-05-12T04:11:37.657Z,62.40
2019-05-12T04:14:06.698Z,63.20
2019-05-12T04:16:36.505Z,62.50
2019-05-12T04:19:05.951Z,62.40
2019-05-12T04:21:35.525Z,62.50
2019-05-12T04:24:05.886Z,62.60
2019-05-12T04:26:36.522Z,62.70
2019-05-12T04:29:05.919Z,62.60
2019-05-12T04:31:35.871Z,62.60
2019-05-12T04:34:05.460Z,63.00
2019-05-12T04:36:35.532Z,63.00
2019-05-12T04:39:07.292Z,63.00
2019-05-12T04:41:36.831Z,63.10
2019-05-12T04:44:06.155Z,63.00
2019-05-12T04:46:35.484Z,62.90
2019-05-12T04:49:05.201Z,63.10
2019-05-12T04:51:35.109Z,63.10
2019-05-12T04:54:05.708Z,63.20
2019-05-12T04:56:36.016Z,63.30
2019-05-12T04:59:05.396Z,63.30
2019-05-12T05:01:35.513Z,63.40
2019-05-12T05:04:05.707Z,63.60
2019-05-12T05:06:34.983Z,63.80
2019-05-12T05:09:05.646Z,63.80
2019-05-12T05:11:34.696Z,64.00
2019-05-12T05:14:04.371Z,64.20
2019-05-12T05:16:34.683Z,64.50
2019-05-12T05:19:03.861Z,64.40
2019-05-12T05:21:34.488Z,64.30
2019-05-12T05:24:03.881Z,64.40
2019-05-12T05:26:37.005Z,64.50
2019-05-12T05:29:04.346Z,64.50
2019-05-12T05:31:33.844Z,64.40
2019-05-12T05:34:04.839Z,64.20
2019-05-12T05:36:34.529Z,64.30
2019-05-12T05:39:06.043Z,64.50
2019-05-12T05:41:44.839Z,64.40
2019-05-12T05:44:07.769Z,64.60
2019-05-12T05:46:39.020Z,64.40
2019-05-12T05:49:07.092Z,64.40
2019-05-12T05:51:39.483Z,64.40
2019-05-12T05:54:06.481Z,64.30
2019-05-12T05:56:42.393Z,64.20
2019-05-12T05:59:05.768Z,64.40
2019-05-12T06:01:34.952Z,64.40
2019-05-12T06:04:08.369Z,64.60
2019-05-12T06:06:34.677Z,64.90
2019-05-12T06:09:06.202Z,64.70
2019-05-12T06:11:35.132Z,64.40
2019-05-12T06:14:11.325Z,64.10
2019-05-12T06:16:35.648Z,64.40
2019-05-12T06:19:04.608Z,64.10
2019-05-12T06:21:36.811Z,64.10
2019-05-12T06:24:08.583Z,64.00
2019-05-12T06:26:35.828Z,64.30
2019-05-12T06:29:05.018Z,63.90
2019-05-12T06:31:33.795Z,64.00
2019-05-12T06:34:06.283Z,63.90
2019-05-12T06:36:33.995Z,63.60
2019-05-12T06:39:04.403Z,62.90
2019-05-12T06:41:33.835Z,62.90
2019-05-12T06:44:03.706Z,62.30
2019-05-12T06:46:34.297Z,62.00
2019-05-12T06:49:09.907Z,62.30
2019-05-12T06:51:35.452Z,62.90
2019-05-12T06:54:10.387Z,62.00
2019-05-12T06:56:34.819Z,62.60
2019-05-12T06:59:09.886Z,62.20
2019-05-12T07:01:34.315Z,62.20
2019-05-12T07:04:06.598Z,61.50
2019-05-12T07:06:35.948Z,62.40
2019-05-12T07:09:10.011Z,61.20
2019-05-12T07:11:44.831Z,61.30
2019-05-12T07:14:19.065Z,60.80
2019-05-12T07:16:39.692Z,60.40
2019-05-12T07:19:17.458Z,60.20
2019-05-12T07:21:39.003Z,59.60
2019-05-12T07:24:11.096Z,59.50
2019-05-12T07:26:38.390Z,59.30
2019-05-12T07:29:07.193Z,58.80
2019-05-12T07:31:36.710Z,58.90
2019-05-12T07:34:07.836Z,59.10
2019-05-12T07:36:36.964Z,59.10
2019-05-12T07:39:08.563Z,58.30
2019-05-12T07:41:42.552Z,58.60
2019-05-12T07:44:10.151Z,58.60
2019-05-12T07:46:39.810Z,58.00
2019-05-12T07:49:09.432Z,57.80
2019-05-12T07:51:40.439Z,58.20
2019-05-12T07:54:08.797Z,58.60
2019-05-12T07:56:40.694Z,58.90
2019-05-12T07:59:08.127Z,59.20
2019-05-12T08:01:45.277Z,59.70
2019-05-12T08:04:07.463Z,59.90
2019-05-12T08:06:41.614Z,59.40
2019-05-12T08:09:07.658Z,59.40
2019-05-12T08:11:38.669Z,59.60
2019-05-12T08:14:07.136Z,57.50
2019-05-12T08:16:37.014Z,57.60
2019-05-12T08:19:08.420Z,57.70
2019-05-12T08:21:43.798Z,57.10
2019-05-12T08:24:07.207Z,56.90
2019-05-12T08:26:36.038Z,56.60
2019-05-12T08:29:04.870Z,56.90
2019-05-12T08:31:40.073Z,57.40
2019-05-12T08:34:04.442Z,57.60
2019-05-12T08:36:33.557Z,57.50
2019-05-12T08:39:11.891Z,57.40
2019-05-12T08:41:37.506Z,55.40
2019-05-12T08:44:06.391Z,57.70
2019-05-12T08:46:35.467Z,57.80
2019-05-12T08:49:05.441Z,57.90
2019-05-12T08:51:34.756Z,57.90
2019-05-12T08:54:07.820Z,57.40
2019-05-12T08:56:34.161Z,57.60
2019-05-12T08:59:04.308Z,57.90
2019-05-12T09:01:34.322Z,57.40
2019-05-12T09:04:06.680Z,57.80
2019-05-12T09:06:34.496Z,57.20
2019-05-12T09:09:05.922Z,56.90
2019-05-12T09:11:34.955Z,56.30
2019-05-12T09:14:05.830Z,55.60
2019-05-12T09:16:35.188Z,54.40
2019-05-12T09:19:04.910Z,53.80
2019-05-12T09:21:36.967Z,53.50
2019-05-12T09:24:04.652Z,53.00
2019-05-12T09:26:34.408Z,53.10
2019-05-12T09:29:03.736Z,52.60
2019-05-12T09:31:33.562Z,52.80
2019-05-12T09:34:11.061Z,53.20
2019-05-12T09:36:33.806Z,53.60
2019-05-12T09:39:05.831Z,54.00
2019-05-12T09:41:42.327Z,53.60
2019-05-12T09:44:05.669Z,53.60
2019-05-12T09:46:37.569Z,54.00
2019-05-12T09:49:05.046Z,53.70
2019-05-12T09:51:41.157Z,54.60
2019-05-12T09:54:05.253Z,54.00
2019-05-12T09:56:34.327Z,54.50
2019-05-12T09:59:17.450Z,54.10
2019-05-12T10:01:35.289Z,54.00
2019-05-12T10:04:04.562Z,54.60
2019-05-12T10:06:34.032Z,54.60
2019-05-12T10:09:08.885Z,54.70
2019-05-12T10:11:35.549Z,55.30
2019-05-12T10:14:06.481Z,54.60
2019-05-12T10:16:39.499Z,54.20
2019-05-12T10:19:06.112Z,53.30
2019-05-12T10:21:44.110Z,54.00
2019-05-12T10:24:13.287Z,53.30
2019-05-12T10:26:49.219Z,53.50
2019-05-12T10:29:17.586Z,53.70
2019-05-12T10:31:44.505Z,54.10
2019-05-12T10:34:19.736Z,53.80
2019-05-12T10:36:49.334Z,54.60
2019-05-12T10:39:18.772Z,53.90
2019-05-12T10:41:47.957Z,52.90
2019-05-12T10:44:16.940Z,52.00
2019-05-12T10:46:47.490Z,51.70
2019-05-12T10:49:16.453Z,51.30
2019-05-12T10:51:47.541Z,51.20
2019-05-12T10:54:15.891Z,50.20
2019-05-12T10:56:44.896Z,49.90
2019-05-12T10:59:27.000Z,50.40
2019-05-12T11:01:48.701Z,50.90
2019-05-12T11:04:14.992Z,50.60
2019-05-12T11:06:48.270Z,51.50
2019-05-12T11:09:14.352Z,50.70
2019-05-12T11:11:46.775Z,51.50
2019-05-12T11:14:14.249Z,51.40
2019-05-12T11:16:44.623Z,52.60
2019-05-12T11:19:13.794Z,52.70
2019-05-12T11:21:44.322Z,52.50
2019-05-12T11:24:13.816Z,52.30
2019-05-12T11:26:43.357Z,52.40
2019-05-12T11:29:14.157Z,52.90
2019-05-12T11:31:44.159Z,53.80
2019-05-12T11:34:15.664Z,53.20
2019-05-12T11:36:44.418Z,52.50
2019-05-12T11:39:14.214Z,52.90
2019-05-12T11:41:44.321Z,52.50
2019-05-12T11:44:13.391Z,52.10
2019-05-12T11:46:44.023Z,52.30
2019-05-12T11:49:13.844Z,52.00
2019-05-12T11:51:42.850Z,49.90
2019-05-12T11:54:13.680Z,49.30
2019-05-12T11:56:46.627Z,48.80
2019-05-12T11:59:13.846Z,48.50
2019-05-12T12:01:47.438Z,49.00
2019-05-12T12:04:14.395Z,48.90
2019-05-12T12:06:43.936Z,48.40
2019-05-12T12:09:15.242Z,47.80
2019-05-12T12:11:43.535Z,48.10
2019-05-12T12:14:14.309Z,46.50
2019-05-12T12:16:49.999Z,47.40
2019-05-12T12:19:13.512Z,47.00
2019-05-12T12:21:46.143Z,46.60
2019-05-12T12:24:13.277Z,45.90
2019-05-12T12:26:44.499Z,46.20
2019-05-12T12:29:13.643Z,46.00
2019-05-12T12:31:49.936Z,46.00
2019-05-12T12:34:23.965Z,45.00
2019-05-12T12:36:49.528Z,44.60
2019-05-12T12:39:18.380Z,44.70
2019-05-12T12:41:58.389Z,44.10
2019-05-12T12:44:17.749Z,44.20
2019-05-12T12:46:51.224Z,42.70
2019-05-12T12:49:18.710Z,42.70
2019-05-12T12:51:47.492Z,42.90
2019-05-12T12:54:16.337Z,42.80
2019-05-12T12:56:46.720Z,41.70
2019-05-12T12:59:15.741Z,43.00
2019-05-12T13:01:44.554Z,42.10
2019-05-12T13:04:34.071Z,41.90
2019-05-12T13:07:04.680Z,39.50
2019-05-12T13:09:33.745Z,41.00
2019-05-12T13:12:06.076Z,41.10
2019-05-12T13:14:38.466Z,41.10
2019-05-12T13:17:07.504Z,41.40
2019-05-12T13:19:36.256Z,40.80
2019-05-12T13:22:09.030Z,40.20
2019-05-12T13:24:35.660Z,40.20
2019-05-12T13:27:27.149Z,40.30
2019-05-12T13:29:54.244Z,36.20
2019-05-12T13:32:31.839Z,38.90
2019-05-12T13:34:53.667Z,38.70
2019-05-12T13:37:23.211Z,38.70
2019-05-12T13:39:56.991Z,39.00
2019-05-12T13:42:24.142Z,39.00
2019-05-12T13:44:53.180Z,38.50
2019-05-12T13:47:21.962Z,38.70
2019-05-12T13:49:50.744Z,38.50
2019-05-12T13:52:20.265Z,38.50
2019-05-12T13:54:50.000Z,39.20
2019-05-12T13:57:18.771Z,39.60
2019-05-12T13:59:47.606Z,39.40
2019-05-12T14:02:22.255Z,38.30
2019-05-12T14:04:46.896Z,38.00
2019-05-12T14:07:19.945Z,38.10
2019-05-12T14:09:46.220Z,37.80
2019-05-12T14:12:15.085Z,37.10
2019-05-12T14:14:49.272Z,37.90
2019-05-12T14:17:18.036Z,37.40
2019-05-12T14:19:46.860Z,37.30
2019-05-12T14:22:21.203Z,36.50
2019-05-12T14:24:46.973Z,37.20
2019-05-12T14:27:19.253Z,37.00
2019-05-12T14:29:46.638Z,37.00
2019-05-12T14:32:17.352Z,36.70
2019-05-12T14:34:51.100Z,37.20
2019-05-12T14:37:17.870Z,36.90
2019-05-12T14:39:50.338Z,37.70
2019-05-12T14:42:17.280Z,38.60
2019-05-12T14:44:49.646Z,37.90
2019-05-12T14:47:19.305Z,38.20
2019-05-12T14:49:47.310Z,37.40
2019-05-12T14:52:16.196Z,37.40
2019-05-12T14:54:45.037Z,36.50
2019-05-12T14:57:13.976Z,36.60
2019-05-12T14:59:42.792Z,37.00
2019-05-12T15:02:13.467Z,36.70
2019-05-12T15:04:43.572Z,37.00
2019-05-12T15:07:12.628Z,37.00
2019-05-12T15:09:41.414Z,36.90
2019-05-12T15:12:10.197Z,36.90
2019-05-12T15:14:39.041Z,37.60
2019-05-12T15:17:07.856Z,38.00
2019-05-12T15:19:36.757Z,37.60
2019-05-12T15:22:07.608Z,37.60
2019-05-12T15:24:36.402Z,37.70
2019-05-12T15:27:05.311Z,37.20
2019-05-12T15:29:43.354Z,36.90
2019-05-12T15:32:12.200Z,37.10
2019-05-12T15:34:41.050Z,37.70
2019-05-12T15:37:09.963Z,37.10
2019-05-12T15:39:38.742Z,36.50
2019-05-12T15:42:07.604Z,36.50
2019-05-12T15:44:37.082Z,35.40
2019-05-12T15:47:06.127Z,35.90
2019-05-12T15:49:35.024Z,36.10
2019-05-12T15:52:03.937Z,36.90
2019-05-12T15:54:35.821Z,36.90
2019-05-12T15:57:04.138Z,36.80
2019-05-12T15:59:34.500Z,36.30
2019-05-12T16:02:12.279Z,36.10
2019-05-12T16:04:42.495Z,36.10
2019-05-12T16:07:04.735Z,36.50
2019-05-12T16:09:34.446Z,36.30
2019-05-12T16:12:18.776Z,36.20
2019-05-12T16:14:41.253Z,33.20
2019-05-12T16:17:10.366Z,35.20
2019-05-12T16:19:39.124Z,35.80
2019-05-12T16:22:08.032Z,35.80
2019-05-12T16:24:43.319Z,35.70
2019-05-12T16:27:10.249Z,35.80
2019-05-12T16:29:45.549Z,35.90
2019-05-12T16:32:23.846Z,35.60
2019-05-12T16:34:47.257Z,35.60
2019-05-12T16:37:14.140Z,36.10
2019-05-12T16:39:47.175Z,36.10
2019-05-12T16:42:14.148Z,35.50
2019-05-12T16:44:44.054Z,34.70
2019-05-12T16:47:18.342Z,34.50
2019-05-12T16:49:44.572Z,34.50
2019-05-12T16:52:13.986Z,34.60
2019-05-12T16:54:43.907Z,34.70
2019-05-12T16:57:17.912Z,34.60
2019-05-12T16:59:44.332Z,34.40
2019-05-12T17:02:13.825Z,34.90
2019-05-12T17:04:43.204Z,35.30
2019-05-12T17:07:18.847Z,35.80
2019-05-12T17:09:43.825Z,36.30
2019-05-12T17:12:14.685Z,36.30
2019-05-12T17:14:53.335Z,36.80
2019-05-12T17:17:28.383Z,37.10
2019-05-12T17:20:08.211Z,37.40
2019-05-12T17:30:34.434Z,38.50
2019-05-12T17:53:35.905Z,41.40
2019-05-12T18:09:20.999Z,40.70
2019-05-12T18:11:56.087Z,41.20
2019-05-12T18:14:30.282Z,41.20
2019-05-12T18:21:54.008Z,42.90
2019-05-12T18:25:32.260Z,41.70
2019-05-12T18:29:31.364Z,43.40
2019-05-12T18:31:33.431Z,43.90
2019-05-12T18:34:04.792Z,44.20
2019-05-12T18:36:34.151Z,44.80
2019-05-12T18:39:59.127Z,45.00
2019-05-12T18:42:28.062Z,45.10
2019-05-12T18:45:02.419Z,45.10
2019-05-12T18:47:32.051Z,45.60
2019-05-12T18:49:58.296Z,46.10
2019-05-12T18:52:29.468Z,46.10
2019-05-12T18:54:57.632Z,46.50
2019-05-12T18:57:26.548Z,46.60
2019-05-12T19:00:03.450Z,46.90
2019-05-12T19:02:28.465Z,47.10
2019-05-12T19:04:56.539Z,47.30
2019-05-12T19:07:38.632Z,47.50
2019-05-12T19:09:55.900Z,47.60
2019-05-12T19:12:32.279Z,47.70
2019-05-12T19:14:55.426Z,47.90
2019-05-12T19:17:24.317Z,48.80
2019-05-12T19:19:59.630Z,48.90
2019-05-12T19:22:24.362Z,48.80
2019-05-12T19:24:59.867Z,49.00
2019-05-12T19:27:26.437Z,49.20
2019-05-12T19:29:55.174Z,49.10
2019-05-12T19:32:28.311Z,49.30
2019-05-12T19:35:00.582Z,49.30
2019-05-12T19:37:30.045Z,49.10
2019-05-12T19:40:06.102Z,49.70
2019-05-12T19:42:29.685Z,49.80
2019-05-12T19:45:00.090Z,49.90
2019-05-12T19:47:33.807Z,50.10
2019-05-12T19:50:05.777Z,50.30
2019-05-12T19:52:30.208Z,50.30
2019-05-12T19:54:59.135Z,50.30
2019-05-12T19:57:27.992Z,50.60
2019-05-12T19:59:56.922Z,50.60
2019-05-12T20:02:25.875Z,50.80
2019-05-12T20:04:56.693Z,50.90
2019-05-12T20:07:25.686Z,51.10
2019-05-12T20:10:00.176Z,51.10
2019-05-12T20:12:25.151Z,51.30
2019-05-12T20:14:56.755Z,51.10
2019-05-12T20:17:27.564Z,51.40
2019-05-12T20:19:56.364Z,51.20
2019-05-12T20:22:25.260Z,51.50
2019-05-12T20:24:54.041Z,51.60
2019-05-12T20:27:24.672Z,51.70
2019-05-12T20:29:54.061Z,51.70
2019-05-12T20:32:24.091Z,51.80
2019-05-12T20:34:55.367Z,51.90
2019-05-12T20:37:23.622Z,51.90
2019-05-12T20:40:00.293Z,52.10
2019-05-12T20:42:24.783Z,52.10
2019-05-12T20:44:58.014Z,52.20
2019-05-12T20:47:24.225Z,52.40
2019-05-12T20:49:53.141Z,52.50
2019-05-12T20:52:23.783Z,52.40
2019-05-12T20:54:59.722Z,52.40
2019-05-12T20:57:26.504Z,52.60
2019-05-12T20:59:58.161Z,52.70
2019-05-12T21:02:26.069Z,52.70
2019-05-12T21:05:00.928Z,52.80
2019-05-12T21:07:27.115Z,52.70
2019-05-12T21:09:56.082Z,52.80
2019-05-12T21:12:24.940Z,53.00
2019-05-12T21:15:00.681Z,53.20
2019-05-12T21:17:39.029Z,53.20
2019-05-12T21:19:59.244Z,53.30
2019-05-12T21:22:25.680Z,53.40
2019-05-12T21:24:54.577Z,53.10
2019-05-12T21:27:23.401Z,53.60
2019-05-12T21:29:54.142Z,53.70
2019-05-12T21:32:24.050Z,54.50
2019-05-12T21:34:57.846Z,53.70
2019-05-12T21:37:25.445Z,53.80
2019-05-12T21:39:54.264Z,54.00
2019-05-12T21:42:25.095Z,54.10
2019-05-12T21:44:53.526Z,54.10
2019-05-12T21:47:24.305Z,54.10
2019-05-12T21:49:57.667Z,54.20
2019-05-12T21:52:24.095Z,53.60
2019-05-12T21:54:55.798Z,54.60
2019-05-12T21:57:30.616Z,54.60
2019-05-12T21:59:58.116Z,54.50
2019-05-12T22:02:30.732Z,54.60
2019-05-12T22:04:57.660Z,54.70
2019-05-12T22:07:29.517Z,54.90
2019-05-12T22:09:57.126Z,54.90
2019-05-12T22:12:28.599Z,54.90
2019-05-12T22:14:56.847Z,55.20
2019-05-12T22:17:25.816Z,55.20
2019-05-12T22:19:54.703Z,55.90
2019-05-12T22:22:29.965Z,55.40
2019-05-12T22:24:57.121Z,54.90
2019-05-12T22:27:27.260Z,55.90
2019-05-12T22:29:56.361Z,55.70
2019-05-12T22:32:29.402Z,55.80
2019-05-12T22:34:55.745Z,55.90
2019-05-12T22:37:29.356Z,55.90
2019-05-12T22:39:55.052Z,56.00
2019-05-12T22:42:24.455Z,56.00
2019-05-12T22:45:01.606Z,56.00
2019-05-12T22:47:24.438Z,56.30
2019-05-12T22:49:56.908Z,56.20
2019-05-12T22:52:24.019Z,56.30
2019-05-12T22:54:53.778Z,56.50
2019-05-12T22:57:24.157Z,56.70
2019-05-12T22:59:53.287Z,56.80
2019-05-12T23:02:25.453Z,56.70
2019-05-12T23:04:57.125Z,56.60
2019-05-12T23:07:29.742Z,56.30
2019-05-12T23:10:00.720Z,56.90
2019-05-12T23:13:05.051Z,57.00
2019-05-12T23:15:33.466Z,56.90
2019-05-12T23:18:04.211Z,57.00
2019-05-12T23:20:35.523Z,57.30
2019-05-12T23:23:04.263Z,57.40
2019-05-12T23:25:34.358Z,57.30
2019-05-12T23:28:06.813Z,57.50
2019-05-12T23:30:33.880Z,57.60
2019-05-12T23:33:03.904Z,57.60
2019-05-12T23:35:37.799Z,57.80
2019-05-12T23:38:04.507Z,57.90
2019-05-12T23:40:34.501Z,58.00
2019-05-12T23:43:04.214Z,58.20
2019-05-12T23:45:33.994Z,57.90
2019-05-12T23:48:03.897Z,58.00
2019-05-12T23:50:32.989Z,58.10
2019-05-12T23:53:03.793Z,58.20
2019-05-12T23:55:34.979Z,58.90
2019-05-12T23:58:04.436Z,58.50
